Piedre Park, Colorado
Current Conditions -  °F | °C
As of 4:35 PM on Wednesday 22 Oct 2014 (Local Time) from KPSO Reporting Station
Scattered Clouds Scattered Clouds  
Wind Chill: 56°   Ceiling: Unl
Heat Index: 56°   Visibility: 10mi
Dew Point: 40°   Wind: 3mph
Humidity: 53%   Direction: 90°E
Pressure: 30.26"   Gusts: NA
Location:  37.2292°N, 107.329°W
Report Text: KPSO 222235Z AUTO 09003KT 10SM SCT075 SCT095 14/04 A3026 RMK AO2 T01360042
Loading
Personal Weather Stations






























Interactive Weather Map
Tropical Storm Tracking
New forecast layout! Learn more

10-Day Weather Forecast

Advertisements
Track Severe Weather on mobile